KITR

Kit Carson County Airport

Burlington, Colorado, USA
METAR KITR 230053Z AUTO 16016G26KT 10SM CLR 23/11 A2991 RMK AO2 PK WND 18032/0011 SLP084 T02330106
Observed Flight Rules
May-23 @ 00:53 UTC (27 minutes ago) Visual Flight Rules
Wind Visibility Clouds
160° at 16 knots
 Gusting to 26 knots
10 miles
  • Clear skies
Temperatures Readings
Current 23°C / 73°F
Dewpoint 11°C / 52°F
Humidity 47%
Altimeter 29.91" Hg
Pressure 1008.4 hPa
Elevation 1279
METAR KITR 230053Z AUTO 16016G26KT 10SM CLR 23/11 A2991 RMK AO2 PK WND 18032/0011 SLP084 T02330106
Observed Flight Rules
May-23 @ 00:53 UTC
(27 minutes ago)
VFR
Wind Visibility
160° at 16 knots
 Gusting to 26 knots
10 miles
Clouds
  • Clear skies
Temperature Dewpoint
23°C / 73°F 11°C / 52°F
Humidity Altimeter Pressure
47% 29.91" Hg 1008.4 hPa